createdAt,value
2017-12-30T00:00:45.190Z,1.44
2017-12-30T00:01:50.266Z,1.42
2017-12-30T00:02:55.264Z,1.42
2017-12-30T00:04:00.297Z,1.46
2017-12-30T00:05:05.675Z,1.44
2017-12-30T00:06:10.844Z,1.44
2017-12-30T00:07:15.849Z,1.50
2017-12-30T00:08:20.817Z,1.58
2017-12-30T00:09:25.775Z,1.54
2017-12-30T00:10:30.971Z,1.59
2017-12-30T00:11:36.190Z,1.52
2017-12-30T00:12:41.075Z,1.50
2017-12-30T00:13:46.464Z,1.54
2017-12-30T00:14:51.282Z,1.89
2017-12-30T00:15:56.513Z,1.96
2017-12-30T00:17:02.138Z,1.88
2017-12-30T00:18:07.077Z,1.89
2017-12-30T00:19:12.111Z,1.83
2017-12-30T00:20:17.200Z,1.77
2017-12-30T00:21:22.187Z,1.77
2017-12-30T00:22:27.304Z,1.75
2017-12-30T00:23:33.505Z,1.73
2017-12-30T00:24:38.531Z,1.77
2017-12-30T00:25:43.499Z,1.74
2017-12-30T00:26:48.528Z,1.72
2017-12-30T00:27:53.513Z,1.80
2017-12-30T00:28:58.978Z,1.74
2017-12-30T00:30:04.509Z,1.77
2017-12-30T00:31:09.448Z,1.80
2017-12-30T00:32:14.384Z,1.92
2017-12-30T00:33:19.374Z,1.99
2017-12-30T00:34:24.330Z,1.97
2017-12-30T00:35:29.334Z,1.98
2017-12-30T00:36:34.858Z,2.05
2017-12-30T00:37:39.907Z,1.95
2017-12-30T00:38:44.936Z,2.00
2017-12-30T00:39:49.950Z,2.06
2017-12-30T00:40:55.014Z,2.06
2017-12-30T00:42:00.037Z,2.02
2017-12-30T00:43:05.433Z,1.95
2017-12-30T00:44:10.328Z,1.94
2017-12-30T00:45:15.238Z,1.96
2017-12-30T00:46:20.153Z,2.05
2017-12-30T00:47:25.005Z,2.07
2017-12-30T00:48:30.615Z,2.00
2017-12-30T00:49:35.835Z,1.93
2017-12-30T00:50:40.712Z,1.94
2017-12-30T00:51:45.631Z,1.95
2017-12-30T00:52:50.444Z,1.94
2017-12-30T00:53:55.444Z,1.94
2017-12-30T00:55:00.519Z,1.94
2017-12-30T00:56:05.879Z,1.96
2017-12-30T00:57:10.807Z,2.00
2017-12-30T00:58:15.713Z,1.98
2017-12-30T00:59:20.567Z,1.96
2017-12-30T01:00:25.470Z,1.98
2017-12-30T01:01:30.345Z,2.03
2017-12-30T01:02:35.666Z,2.04
2017-12-30T01:03:40.600Z,2.04
2017-12-30T01:04:45.605Z,2.02
2017-12-30T01:05:50.600Z,2.01
2017-12-30T01:06:56.378Z,2.04
2017-12-30T01:08:01.479Z,2.03
2017-12-30T01:09:06.996Z,2.03
2017-12-30T01:10:12.021Z,2.03
2017-12-30T01:11:17.280Z,2.04
2017-12-30T01:12:23.109Z,1.92
2017-12-30T01:13:28.095Z,1.97
2017-12-30T01:14:34.044Z,1.94
2017-12-30T01:15:39.378Z,1.97
2017-12-30T01:16:45.363Z,2.01
2017-12-30T01:17:51.006Z,2.07
2017-12-30T01:18:55.820Z,2.09
2017-12-30T01:20:00.616Z,2.11
2017-12-30T01:21:05.409Z,2.11
2017-12-30T01:22:11.517Z,2.19
2017-12-30T01:23:16.544Z,2.24
2017-12-30T01:24:21.686Z,2.25
2017-12-30T01:25:26.657Z,2.30
2017-12-30T01:26:31.580Z,2.32
2017-12-30T01:27:36.551Z,2.33
2017-12-30T01:28:41.893Z,2.25
2017-12-30T01:29:47.032Z,2.27
2017-12-30T01:30:51.906Z,2.29
2017-12-30T01:31:56.789Z,2.30
2017-12-30T01:33:01.739Z,2.33
2017-12-30T01:34:06.627Z,2.31
2017-12-30T01:35:12.046Z,2.31
2017-12-30T01:36:17.030Z,2.31
2017-12-30T01:37:21.988Z,2.33
2017-12-30T01:38:26.953Z,2.33
2017-12-30T01:39:32.316Z,2.34
2017-12-30T01:40:37.194Z,2.32
2017-12-30T01:41:42.593Z,2.29
2017-12-30T01:42:48.334Z,2.29
2017-12-30T01:43:53.225Z,2.34
2017-12-30T01:44:58.114Z,2.35
2017-12-30T01:46:03.679Z,2.30
2017-12-30T01:47:08.683Z,2.29
2017-12-30T01:48:14.012Z,2.27
2017-12-30T01:49:19.101Z,2.27
2017-12-30T01:50:24.105Z,2.22
2017-12-30T01:51:29.129Z,2.20
2017-12-30T01:52:33.977Z,2.22
2017-12-30T01:53:38.780Z,2.16
2017-12-30T01:54:43.993Z,2.14
2017-12-30T01:55:48.809Z,2.13
2017-12-30T01:56:53.832Z,2.07
2017-12-30T01:57:58.837Z,2.09
2017-12-30T01:59:03.727Z,2.11
2017-12-30T02:00:08.665Z,2.10
2017-12-30T02:01:14.045Z,2.08
2017-12-30T02:02:19.033Z,2.08
2017-12-30T02:03:23.905Z,2.08
2017-12-30T02:04:29.482Z,2.10
2017-12-30T02:05:34.441Z,2.05
2017-12-30T02:06:39.289Z,2.06
2017-12-30T02:07:44.368Z,2.09
2017-12-30T02:08:49.214Z,2.16
2017-12-30T02:09:54.033Z,2.12
2017-12-30T02:10:58.839Z,2.07
2017-12-30T02:12:03.679Z,2.06
2017-12-30T02:13:08.367Z,2.09
2017-12-30T02:14:13.654Z,2.07
2017-12-30T02:15:18.363Z,2.05
2017-12-30T02:16:23.289Z,2.06
2017-12-30T02:17:28.582Z,2.04
2017-12-30T02:18:33.601Z,2.01
2017-12-30T02:19:38.532Z,2.04
2017-12-30T02:20:43.822Z,2.02
2017-12-30T02:21:48.783Z,1.95
2017-12-30T02:22:53.790Z,1.92
2017-12-30T02:23:58.790Z,1.90
2017-12-30T02:25:03.724Z,1.90
2017-12-30T02:26:08.694Z,2.02
2017-12-30T02:27:13.975Z,1.99
2017-12-30T02:28:19.157Z,2.01
2017-12-30T02:29:24.145Z,1.97
2017-12-30T02:30:29.176Z,1.93
2017-12-30T02:31:34.274Z,1.92
2017-12-30T02:32:39.288Z,1.94
2017-12-30T02:33:44.547Z,1.99
2017-12-30T02:34:49.582Z,1.94
2017-12-30T02:35:54.588Z,1.93
2017-12-30T02:36:59.525Z,1.96
2017-12-30T02:38:04.510Z,1.94
2017-12-30T02:39:10.077Z,1.94
2017-12-30T02:40:15.429Z,1.93
2017-12-30T02:41:21.086Z,1.91
2017-12-30T02:42:26.054Z,1.91
2017-12-30T02:43:31.056Z,1.93
2017-12-30T02:44:35.974Z,1.99
2017-12-30T02:45:40.920Z,1.99
2017-12-30T02:46:46.255Z,1.99
2017-12-30T02:47:51.237Z,1.97
2017-12-30T02:48:56.984Z,1.91
2017-12-30T02:50:02.075Z,1.92
2017-12-30T02:51:07.026Z,1.94
2017-12-30T02:52:12.681Z,1.94
2017-12-30T02:53:18.095Z,1.94
2017-12-30T02:54:23.149Z,1.92
2017-12-30T02:55:28.134Z,1.86
2017-12-30T02:56:33.142Z,1.89
2017-12-30T02:57:38.137Z,1.92
2017-12-30T02:58:43.009Z,1.95
2017-12-30T02:59:48.830Z,1.96
2017-12-30T03:00:53.764Z,1.98
2017-12-30T03:01:58.732Z,1.92
2017-12-30T03:03:03.624Z,1.96
2017-12-30T03:04:08.608Z,1.92
2017-12-30T03:05:13.554Z,1.94
2017-12-30T03:06:18.765Z,1.96
2017-12-30T03:07:23.743Z,1.97
2017-12-30T03:08:28.778Z,1.93
2017-12-30T03:09:33.797Z,1.93
2017-12-30T03:10:38.834Z,1.89
2017-12-30T03:11:43.821Z,1.89
2017-12-30T03:12:49.281Z,1.92
2017-12-30T03:13:54.255Z,1.91
2017-12-30T03:14:59.265Z,1.92
2017-12-30T03:16:04.262Z,1.93
2017-12-30T03:17:09.290Z,1.91
2017-12-30T03:18:14.044Z,1.89
2017-12-30T03:19:19.127Z,1.91
2017-12-30T03:20:23.831Z,1.90
2017-12-30T03:21:28.607Z,1.88
2017-12-30T03:22:33.421Z,1.88
2017-12-30T03:23:38.188Z,1.88
2017-12-30T03:24:42.951Z,1.89
2017-12-30T03:25:47.731Z,1.87
2017-12-30T03:26:52.482Z,1.87
2017-12-30T03:27:57.382Z,1.89
2017-12-30T03:29:02.257Z,1.84
2017-12-30T03:30:07.141Z,1.88
2017-12-30T03:31:11.915Z,1.90
2017-12-30T03:32:17.108Z,1.90
2017-12-30T03:33:21.884Z,1.92
2017-12-30T03:34:26.694Z,1.92
2017-12-30T03:35:31.489Z,1.91
2017-12-30T03:36:36.217Z,1.91
2017-12-30T03:37:40.974Z,1.92
2017-12-30T03:38:46.135Z,1.88
2017-12-30T03:39:51.035Z,1.86
2017-12-30T03:40:55.974Z,1.82
2017-12-30T03:42:00.692Z,1.82
2017-12-30T03:43:05.406Z,1.81
2017-12-30T03:44:10.134Z,1.79
2017-12-30T03:45:15.382Z,1.80
2017-12-30T03:46:20.340Z,1.80
2017-12-30T03:47:25.076Z,1.69
2017-12-30T03:48:29.814Z,1.71
2017-12-30T03:49:34.460Z,1.67
2017-12-30T03:50:39.720Z,1.70
2017-12-30T03:51:44.959Z,1.72
2017-12-30T03:52:51.094Z,1.70
2017-12-30T03:53:55.953Z,1.66
2017-12-30T03:55:00.785Z,1.68
2017-12-30T03:56:05.778Z,1.64
2017-12-30T03:57:11.032Z,1.67
2017-12-30T03:58:16.317Z,1.66
2017-12-30T03:59:21.370Z,1.63
2017-12-30T04:00:26.385Z,1.57
2017-12-30T04:01:31.364Z,1.59
2017-12-30T04:02:36.336Z,1.57
2017-12-30T04:03:41.173Z,1.58
2017-12-30T04:04:46.354Z,1.56
2017-12-30T04:05:51.341Z,1.55
2017-12-30T04:06:56.804Z,1.60
2017-12-30T04:08:01.658Z,1.65
2017-12-30T04:09:06.543Z,1.62
2017-12-30T04:10:11.427Z,1.60
2017-12-30T04:11:16.692Z,1.59
2017-12-30T04:12:21.666Z,1.62
2017-12-30T04:13:26.707Z,1.65
2017-12-30T04:14:31.714Z,1.66
2017-12-30T04:15:36.740Z,1.65
2017-12-30T04:16:42.750Z,1.70
2017-12-30T04:17:48.087Z,1.65
2017-12-30T04:18:53.030Z,1.63
2017-12-30T04:19:57.928Z,1.67
2017-12-30T04:21:02.825Z,1.67
2017-12-30T04:22:07.824Z,1.77
2017-12-30T04:23:13.755Z,1.70
2017-12-30T04:24:19.174Z,1.66
2017-12-30T04:25:24.230Z,1.68
2017-12-30T04:26:29.244Z,1.69
2017-12-30T04:27:34.098Z,1.74
2017-12-30T04:28:38.936Z,1.73
2017-12-30T04:29:43.871Z,1.71
2017-12-30T04:30:49.292Z,1.68
2017-12-30T04:31:54.846Z,1.65
2017-12-30T04:32:59.798Z,1.71
2017-12-30T04:34:05.196Z,1.72
2017-12-30T04:35:11.107Z,1.71
2017-12-30T04:36:16.007Z,1.67
2017-12-30T04:37:21.446Z,1.63
2017-12-30T04:38:26.291Z,1.67
2017-12-30T04:39:31.184Z,1.68
2017-12-30T04:40:36.131Z,1.68
2017-12-30T04:41:41.013Z,1.69
2017-12-30T04:42:45.917Z,1.72
2017-12-30T04:43:51.298Z,1.70
2017-12-30T04:44:56.225Z,1.72
2017-12-30T04:46:01.131Z,1.76
2017-12-30T04:47:06.098Z,1.73
2017-12-30T04:48:12.832Z,1.70
2017-12-30T04:49:17.734Z,1.75
2017-12-30T04:50:23.114Z,1.75
2017-12-30T04:51:28.596Z,1.73
2017-12-30T04:52:33.493Z,1.71
2017-12-30T04:53:38.539Z,1.68
2017-12-30T04:54:43.484Z,1.66
2017-12-30T04:55:48.527Z,1.66
2017-12-30T04:56:54.958Z,1.73
2017-12-30T04:57:59.993Z,1.78
2017-12-30T04:59:04.947Z,1.76
2017-12-30T05:00:09.900Z,1.81
2017-12-30T05:01:15.592Z,1.78
2017-12-30T05:02:20.531Z,1.75
2017-12-30T05:03:25.938Z,1.80
2017-12-30T05:04:31.457Z,1.84
2017-12-30T05:05:36.443Z,1.83
2017-12-30T05:06:41.364Z,1.84
2017-12-30T05:07:46.305Z,1.81
2017-12-30T05:08:51.244Z,1.82
2017-12-30T05:09:56.552Z,1.88
2017-12-30T05:11:01.585Z,1.92
2017-12-30T05:12:07.366Z,1.93
2017-12-30T05:13:12.306Z,1.91
2017-12-30T05:14:17.365Z,1.96
2017-12-30T05:15:22.358Z,1.94
2017-12-30T05:16:27.642Z,1.99
2017-12-30T05:17:32.633Z,2.02
2017-12-30T05:18:37.595Z,2.01
2017-12-30T05:19:42.605Z,1.96
2017-12-30T05:20:47.556Z,1.99
2017-12-30T05:21:52.596Z,2.02
2017-12-30T05:22:59.229Z,2.01
2017-12-30T05:24:04.263Z,2.03
2017-12-30T05:25:09.338Z,2.06
2017-12-30T05:26:15.496Z,2.06
2017-12-30T05:27:20.406Z,2.08
2017-12-30T05:28:25.296Z,2.10
2017-12-30T05:29:30.499Z,2.12
2017-12-30T05:30:35.422Z,2.08
2017-12-30T05:31:40.229Z,2.09
2017-12-30T05:32:45.195Z,2.09
2017-12-30T05:33:50.334Z,2.12
2017-12-30T05:34:55.220Z,2.14
2017-12-30T05:36:00.478Z,2.15
2017-12-30T05:37:05.354Z,2.19
2017-12-30T05:38:10.111Z,2.19
2017-12-30T05:39:14.885Z,2.19
2017-12-30T05:40:19.649Z,2.20
2017-12-30T05:41:25.258Z,2.26
2017-12-30T05:42:30.584Z,2.28
2017-12-30T05:43:35.402Z,2.31
2017-12-30T05:44:40.155Z,2.28
2017-12-30T05:45:44.917Z,2.31
2017-12-30T05:46:49.796Z,2.30
2017-12-30T05:47:54.845Z,2.32
2017-12-30T05:48:59.685Z,2.34
2017-12-30T05:50:04.484Z,2.34
2017-12-30T05:51:10.344Z,2.36
2017-12-30T05:52:15.251Z,2.35
2017-12-30T05:53:20.233Z,2.38
2017-12-30T05:54:25.633Z,2.46
2017-12-30T05:55:31.419Z,2.40
2017-12-30T05:56:37.164Z,2.44
2017-12-30T05:57:42.200Z,2.45
2017-12-30T05:58:47.174Z,2.49
2017-12-30T05:59:52.163Z,2.47
2017-12-30T06:00:57.646Z,2.45
2017-12-30T06:02:02.604Z,2.40
2017-12-30T06:03:07.616Z,2.41
2017-12-30T06:04:12.686Z,2.46
2017-12-30T06:05:17.689Z,2.47
2017-12-30T06:06:22.747Z,2.52
2017-12-30T06:07:28.241Z,2.49
2017-12-30T06:08:33.299Z,2.44
2017-12-30T06:09:38.279Z,2.42
2017-12-30T06:10:43.263Z,2.47
2017-12-30T06:11:48.326Z,2.51
2017-12-30T06:12:53.302Z,2.52
2017-12-30T06:13:58.793Z,2.52
2017-12-30T06:15:03.879Z,2.52
2017-12-30T06:16:09.024Z,2.48
2017-12-30T06:17:14.008Z,2.46
2017-12-30T06:18:19.002Z,2.44
2017-12-30T06:19:23.959Z,2.45
2017-12-30T06:20:29.352Z,2.44
2017-12-30T06:21:34.389Z,2.49
2017-12-30T06:22:39.545Z,2.45
2017-12-30T06:23:44.451Z,2.44
2017-12-30T06:24:49.336Z,2.41
2017-12-30T06:25:54.393Z,2.47
2017-12-30T06:26:59.921Z,2.48
2017-12-30T06:28:04.890Z,2.48
2017-12-30T06:29:09.888Z,2.48
2017-12-30T06:30:16.525Z,2.50
2017-12-30T06:31:22.714Z,2.45
2017-12-30T06:32:27.563Z,2.42
2017-12-30T06:33:32.730Z,2.32
2017-12-30T06:34:37.664Z,2.38
2017-12-30T06:35:42.626Z,2.39
2017-12-30T06:36:47.603Z,2.37
2017-12-30T06:37:52.590Z,2.34
2017-12-30T06:38:57.642Z,2.37
2017-12-30T06:40:02.994Z,2.37
2017-12-30T06:41:09.093Z,2.34
2017-12-30T06:42:14.066Z,2.34
2017-12-30T06:43:19.078Z,2.37
2017-12-30T06:44:24.136Z,2.34
2017-12-30T06:45:29.173Z,2.27
2017-12-30T06:46:35.827Z,2.24
2017-12-30T06:47:40.900Z,2.21
2017-12-30T06:48:45.895Z,2.18
2017-12-30T06:49:50.884Z,2.16
2017-12-30T06:50:55.948Z,2.14
2017-12-30T06:52:00.932Z,2.10
2017-12-30T06:53:06.384Z,2.09
2017-12-30T06:54:11.386Z,2.04
2017-12-30T06:55:16.377Z,2.03
2017-12-30T06:56:22.097Z,1.98
2017-12-30T06:57:27.090Z,1.99
2017-12-30T06:58:32.212Z,1.97
2017-12-30T06:59:37.696Z,1.97
2017-12-30T07:00:42.664Z,1.93
2017-12-30T07:01:47.654Z,1.96
2017-12-30T07:02:52.579Z,1.96
2017-12-30T07:03:57.838Z,1.94
2017-12-30T07:05:02.838Z,1.93
2017-12-30T07:06:08.253Z,1.92
2017-12-30T07:07:13.269Z,1.89
2017-12-30T07:08:18.267Z,1.85
2017-12-30T07:09:23.456Z,1.84
2017-12-30T07:10:28.570Z,1.82
2017-12-30T07:11:33.620Z,1.80
2017-12-30T07:12:39.057Z,1.73
2017-12-30T07:13:44.099Z,1.71
2017-12-30T07:14:49.104Z,1.67
2017-12-30T07:15:54.122Z,1.58
2017-12-30T07:16:59.891Z,1.51
2017-12-30T07:18:04.886Z,1.48
2017-12-30T07:19:10.294Z,1.44
2017-12-30T07:20:15.418Z,1.43
2017-12-30T07:21:20.442Z,1.41
2017-12-30T07:22:25.376Z,1.41
2017-12-30T07:23:30.317Z,1.42
2017-12-30T07:24:35.362Z,1.42
2017-12-30T07:25:40.776Z,1.41
2017-12-30T07:26:45.715Z,1.40
2017-12-30T07:27:50.588Z,1.38
2017-12-30T07:28:55.501Z,1.40
2017-12-30T07:30:00.376Z,1.39
2017-12-30T07:31:05.322Z,1.35
2017-12-30T07:32:12.305Z,1.35
2017-12-30T07:33:17.253Z,1.38
2017-12-30T07:34:22.214Z,1.36
2017-12-30T07:35:27.083Z,1.42
2017-12-30T07:36:31.923Z,1.45
2017-12-30T07:37:37.012Z,1.43
2017-12-30T07:38:42.353Z,1.42
2017-12-30T07:39:47.733Z,1.46
2017-12-30T07:40:52.654Z,1.49
2017-12-30T07:41:57.645Z,1.54
2017-12-30T07:43:02.644Z,1.54
2017-12-30T07:44:07.590Z,1.51
2017-12-30T07:45:13.832Z,1.53
2017-12-30T07:46:18.843Z,1.58
2017-12-30T07:47:23.664Z,1.63
2017-12-30T07:48:28.910Z,1.65
2017-12-30T07:49:33.926Z,1.66
2017-12-30T07:50:38.995Z,1.71
2017-12-30T07:51:44.491Z,1.65
2017-12-30T07:52:49.454Z,1.67
2017-12-30T07:53:54.439Z,1.70
2017-12-30T07:54:59.370Z,1.74
2017-12-30T07:56:04.269Z,1.75
2017-12-30T07:57:09.350Z,1.77
2017-12-30T07:58:15.386Z,1.76
2017-12-30T07:59:20.298Z,1.80
2017-12-30T08:00:25.178Z,1.79
2017-12-30T08:01:30.143Z,1.83
2017-12-30T08:02:35.118Z,1.86
2017-12-30T08:03:40.637Z,1.84
2017-12-30T08:04:45.999Z,1.86
2017-12-30T08:05:50.882Z,1.86
2017-12-30T08:06:55.796Z,1.87
2017-12-30T08:08:00.702Z,1.90
2017-12-30T08:09:06.650Z,1.90
2017-12-30T08:10:12.174Z,1.88
2017-12-30T08:11:17.546Z,1.92
2017-12-30T08:12:22.426Z,1.95
2017-12-30T08:13:27.328Z,1.98
2017-12-30T08:14:32.286Z,1.97
2017-12-30T08:15:37.620Z,2.00
2017-12-30T08:16:43.002Z,1.97
2017-12-30T08:17:47.922Z,1.97
2017-12-30T08:18:52.877Z,2.07
2017-12-30T08:19:57.896Z,2.07
2017-12-30T08:21:02.753Z,2.03
2017-12-30T08:22:08.331Z,2.03
2017-12-30T08:23:13.805Z,2.00
2017-12-30T08:24:18.798Z,1.97
2017-12-30T08:25:23.761Z,2.09
2017-12-30T08:26:28.696Z,2.05
2017-12-30T08:27:33.829Z,2.01
2017-12-30T08:28:38.750Z,1.98
2017-12-30T08:29:44.317Z,2.02
2017-12-30T08:30:51.396Z,2.04
2017-12-30T08:31:56.615Z,2.02
2017-12-30T08:33:01.699Z,2.00
2017-12-30T08:34:06.701Z,1.98
2017-12-30T08:35:11.775Z,2.03
2017-12-30T08:36:17.225Z,2.06
2017-12-30T08:37:22.580Z,2.06
2017-12-30T08:38:27.629Z,2.02
2017-12-30T08:39:32.656Z,2.08
2017-12-30T08:40:37.665Z,2.13
2017-12-30T08:41:42.656Z,2.15
2017-12-30T08:42:49.070Z,2.19
2017-12-30T08:43:54.144Z,2.20
2017-12-30T08:44:59.163Z,2.21
2017-12-30T08:46:04.116Z,2.19
2017-12-30T08:47:09.095Z,2.20
2017-12-30T08:48:14.318Z,2.17
2017-12-30T08:49:19.847Z,2.20
2017-12-30T08:50:25.575Z,2.17
2017-12-30T08:51:30.671Z,2.21
2017-12-30T08:52:35.704Z,2.30
2017-12-30T08:53:40.865Z,2.36
2017-12-30T08:54:45.851Z,2.36
2017-12-30T08:55:51.372Z,2.38
2017-12-30T08:56:56.333Z,2.36
2017-12-30T08:58:01.306Z,2.35
2017-12-30T08:59:06.201Z,2.37
2017-12-30T09:00:11.278Z,2.36
2017-12-30T09:01:16.218Z,2.37
2017-12-30T09:02:22.261Z,2.35
2017-12-30T09:03:27.661Z,2.35
2017-12-30T09:04:32.559Z,2.34
2017-12-30T09:05:37.572Z,2.31
2017-12-30T09:06:42.790Z,2.28
2017-12-30T09:07:47.836Z,2.26
2017-12-30T09:08:53.183Z,2.25
2017-12-30T09:09:58.138Z,2.29
2017-12-30T09:11:03.392Z,2.29
2017-12-30T09:12:08.324Z,2.32
2017-12-30T09:13:13.238Z,2.30
2017-12-30T09:14:18.211Z,2.32
2017-12-30T09:15:23.615Z,2.30
2017-12-30T09:16:29.246Z,2.35
2017-12-30T09:17:34.320Z,2.34
2017-12-30T09:18:39.237Z,2.33
2017-12-30T09:19:44.136Z,2.36
2017-12-30T09:20:49.050Z,2.38
2017-12-30T09:21:54.394Z,2.41
2017-12-30T09:22:59.258Z,2.40
2017-12-30T09:24:04.154Z,2.41
2017-12-30T09:25:09.115Z,2.45
2017-12-30T09:26:14.037Z,2.44
2017-12-30T09:27:18.942Z,2.44
2017-12-30T09:28:23.811Z,2.49
2017-12-30T09:29:28.695Z,2.49
2017-12-30T09:30:33.578Z,2.52
2017-12-30T09:31:38.411Z,2.58
2017-12-30T09:32:43.294Z,2.54
2017-12-30T09:33:48.527Z,2.56
2017-12-30T09:34:54.022Z,2.54
2017-12-30T09:35:58.846Z,2.51
2017-12-30T09:37:03.655Z,2.57
2017-12-30T09:38:08.436Z,2.58
2017-12-30T09:39:13.244Z,2.58
2017-12-30T09:40:18.797Z,2.57
2017-12-30T09:41:23.663Z,2.53
2017-12-30T09:42:28.558Z,2.54
2017-12-30T09:43:33.525Z,2.55
2017-12-30T09:44:38.525Z,2.53
2017-12-30T09:46:46.056Z,2.55
2017-12-30T09:47:51.025Z,2.60
2017-12-30T09:48:56.182Z,2.62
2017-12-30T09:50:01.082Z,2.58
2017-12-30T09:51:06.024Z,2.56
2017-12-30T09:52:11.041Z,2.59
2017-12-30T09:53:16.532Z,2.57
2017-12-30T09:54:21.436Z,2.85
2017-12-30T09:55:26.303Z,2.80
2017-12-30T09:56:31.211Z,2.69
2017-12-30T09:57:36.845Z,2.73
2017-12-30T09:58:41.951Z,2.81
2017-12-30T09:59:47.569Z,2.87
2017-12-30T10:00:52.476Z,2.84
2017-12-30T10:01:57.380Z,2.90
2017-12-30T10:03:02.296Z,2.87
2017-12-30T10:04:07.309Z,2.84
2017-12-30T10:05:12.320Z,2.90
2017-12-30T10:06:17.783Z,2.91
2017-12-30T10:07:23.455Z,2.93
2017-12-30T10:08:28.544Z,3.02
2017-12-30T10:09:33.722Z,3.04
2017-12-30T10:10:38.795Z,3.00
2017-12-30T10:11:43.921Z,3.08
2017-12-30T10:12:49.253Z,3.11
2017-12-30T10:13:54.394Z,3.17
2017-12-30T10:14:59.374Z,3.18
2017-12-30T10:16:04.401Z,3.16
2017-12-30T10:17:09.339Z,3.19
2017-12-30T10:18:14.241Z,3.18
2017-12-30T10:19:19.578Z,3.23
2017-12-30T10:20:24.514Z,3.22
2017-12-30T10:21:29.446Z,3.26
2017-12-30T10:22:34.395Z,3.33
2017-12-30T10:23:39.316Z,3.34
2017-12-30T10:24:44.242Z,3.38
2017-12-30T10:25:49.618Z,3.38
2017-12-30T10:26:54.553Z,3.37
2017-12-30T10:27:59.479Z,3.34
2017-12-30T10:29:04.466Z,3.38
2017-12-30T10:30:09.644Z,3.41
2017-12-30T10:31:14.513Z,3.42
2017-12-30T10:32:19.788Z,3.41
2017-12-30T10:33:24.784Z,3.42
2017-12-30T10:34:29.774Z,3.42
2017-12-30T10:35:34.626Z,3.51
2017-12-30T10:36:39.647Z,3.52
2017-12-30T10:37:44.723Z,3.58
2017-12-30T10:38:50.058Z,3.63
2017-12-30T10:39:54.976Z,3.70
2017-12-30T10:41:03.212Z,3.70
2017-12-30T10:42:08.107Z,3.67
2017-12-30T10:43:13.015Z,3.72
2017-12-30T10:44:17.837Z,3.74
2017-12-30T10:45:24.360Z,3.74
2017-12-30T10:46:29.275Z,3.69
2017-12-30T10:47:34.350Z,3.66
2017-12-30T10:48:39.275Z,3.70
2017-12-30T10:49:44.179Z,3.75
2017-12-30T10:50:49.421Z,3.73
2017-12-30T10:51:55.482Z,3.76
2017-12-30T10:53:00.415Z,3.80
2017-12-30T10:54:05.291Z,3.88
2017-12-30T10:55:11.447Z,3.82
2017-12-30T10:56:16.409Z,3.83
2017-12-30T10:57:21.435Z,3.81
2017-12-30T10:58:26.902Z,3.84
2017-12-30T10:59:31.815Z,3.78
2017-12-30T11:00:40.694Z,3.77
2017-12-30T11:01:45.575Z,3.82
2017-12-30T11:02:50.452Z,3.79
2017-12-30T11:03:55.506Z,3.84
2017-12-30T11:05:00.977Z,3.89
2017-12-30T11:06:05.755Z,3.91
2017-12-30T11:07:10.484Z,3.93
2017-12-30T11:08:15.283Z,4.06
2017-12-30T11:09:20.136Z,4.05
2017-12-30T11:10:25.139Z,4.07
2017-12-30T11:11:30.525Z,4.16
2017-12-30T11:12:35.493Z,4.14
2017-12-30T11:13:40.423Z,4.16
2017-12-30T11:14:45.395Z,4.24
2017-12-30T11:15:50.375Z,4.27
2017-12-30T11:16:55.284Z,4.37
2017-12-30T11:18:00.603Z,4.32
2017-12-30T11:19:05.610Z,4.43
2017-12-30T11:20:10.629Z,4.47
2017-12-30T11:21:15.657Z,4.54
2017-12-30T11:22:20.756Z,4.50
2017-12-30T11:23:26.815Z,4.49
2017-12-30T11:24:32.299Z,4.51
2017-12-30T11:25:37.354Z,4.50
2017-12-30T11:26:42.357Z,4.52
2017-12-30T11:27:47.354Z,4.65
2017-12-30T11:28:52.421Z,4.71
2017-12-30T11:29:57.703Z,4.73
2017-12-30T11:31:03.135Z,4.84
2017-12-30T11:32:08.205Z,4.95
2017-12-30T11:33:13.175Z,4.93
2017-12-30T11:34:18.774Z,4.91
2017-12-30T11:35:23.864Z,4.94
2017-12-30T11:36:28.966Z,5.03
2017-12-30T11:37:34.402Z,5.13
2017-12-30T11:38:39.417Z,5.11
2017-12-30T11:39:44.415Z,5.17
2017-12-30T11:40:49.484Z,5.35
2017-12-30T11:41:54.479Z,5.43
2017-12-30T11:42:59.664Z,5.55
2017-12-30T11:44:05.152Z,5.50
2017-12-30T11:45:10.116Z,5.48
2017-12-30T11:46:15.046Z,5.45
2017-12-30T11:47:20.002Z,5.44
2017-12-30T11:48:26.554Z,5.47
2017-12-30T11:49:31.510Z,5.53
2017-12-30T11:50:36.892Z,5.49
2017-12-30T11:51:41.981Z,5.61
2017-12-30T11:52:46.956Z,5.58
2017-12-30T11:53:51.961Z,5.64
2017-12-30T11:54:56.950Z,5.69
2017-12-30T11:56:03.071Z,5.76
2017-12-30T11:57:08.331Z,5.76
2017-12-30T11:58:13.306Z,5.64
2017-12-30T11:59:18.249Z,5.81
2017-12-30T12:00:23.162Z,5.82
2017-12-30T12:01:28.103Z,5.95
2017-12-30T12:02:33.025Z,5.96
2017-12-30T12:03:38.313Z,5.99
2017-12-30T12:04:43.421Z,5.93
2017-12-30T12:05:48.356Z,5.88
2017-12-30T12:06:53.832Z,5.96
2017-12-30T12:07:58.756Z,6.07
2017-12-30T12:09:03.866Z,6.06
2017-12-30T12:10:09.279Z,6.03
2017-12-30T12:11:14.877Z,6.06
2017-12-30T12:12:20.202Z,6.16
2017-12-30T12:13:25.186Z,6.09
2017-12-30T12:14:30.646Z,6.16
2017-12-30T12:15:35.927Z,6.40
2017-12-30T12:16:41.437Z,6.30
2017-12-30T12:17:46.476Z,6.27
2017-12-30T12:18:51.645Z,6.26
2017-12-30T12:19:58.464Z,6.36
2017-12-30T12:21:03.528Z,6.30
2017-12-30T12:22:08.558Z,6.25
2017-12-30T12:23:13.893Z,6.30
2017-12-30T12:24:18.944Z,6.36
2017-12-30T12:25:23.963Z,6.35
2017-12-30T12:26:28.975Z,6.41
2017-12-30T12:27:34.035Z,6.39
2017-12-30T12:28:39.036Z,6.40
2017-12-30T12:29:44.333Z,6.47
2017-12-30T12:30:49.249Z,6.49
2017-12-30T12:31:54.830Z,6.43
2017-12-30T12:32:59.745Z,6.38
2017-12-30T12:34:04.761Z,6.44
2017-12-30T12:35:09.806Z,6.50
2017-12-30T12:36:15.630Z,6.43
2017-12-30T12:37:20.553Z,6.47
2017-12-30T12:38:25.336Z,6.50
2017-12-30T12:39:30.140Z,6.53
2017-12-30T12:40:35.078Z,6.51
2017-12-30T12:41:40.080Z,6.49
2017-12-30T12:42:45.463Z,6.66
2017-12-30T12:43:50.588Z,6.71
2017-12-30T12:44:55.543Z,6.63
2017-12-30T12:46:00.555Z,6.58
2017-12-30T12:47:05.443Z,6.56
2017-12-30T12:48:10.312Z,6.55
2017-12-30T12:49:15.967Z,6.55
2017-12-30T12:50:20.860Z,6.60
2017-12-30T12:51:25.800Z,6.64
2017-12-30T12:52:30.735Z,6.62
2017-12-30T12:53:35.749Z,6.60
2017-12-30T12:54:40.746Z,6.61
2017-12-30T12:55:45.648Z,6.65
2017-12-30T12:56:50.606Z,6.75
2017-12-30T12:57:55.387Z,6.67
2017-12-30T12:59:00.382Z,6.71
2017-12-30T13:00:05.402Z,6.65
2017-12-30T13:01:10.875Z,6.74
2017-12-30T13:02:16.043Z,6.79
2017-12-30T13:03:22.118Z,6.85
2017-12-30T13:04:27.146Z,6.83
2017-12-30T13:05:32.196Z,6.83
2017-12-30T13:06:37.191Z,6.75
2017-12-30T13:07:43.182Z,6.76
2017-12-30T13:08:48.427Z,6.77
2017-12-30T13:09:53.524Z,6.83
2017-12-30T13:10:58.768Z,6.84
2017-12-30T13:12:03.786Z,6.89
2017-12-30T13:13:08.739Z,6.89
2017-12-30T13:14:14.833Z,6.88
2017-12-30T13:15:19.751Z,6.81
2017-12-30T13:16:24.776Z,6.99
2017-12-30T13:17:30.334Z,6.97
2017-12-30T13:18:35.391Z,7.04
2017-12-30T13:19:41.233Z,7.04
2017-12-30T13:20:48.172Z,7.07
2017-12-30T13:21:53.096Z,7.10
2017-12-30T13:22:58.167Z,7.12
2017-12-30T13:24:03.075Z,7.16
2017-12-30T13:25:08.038Z,7.28
2017-12-30T13:26:12.939Z,7.24
2017-12-30T13:27:18.386Z,7.25
2017-12-30T13:28:23.334Z,7.19
2017-12-30T13:29:28.549Z,7.17
2017-12-30T13:30:33.434Z,7.16
2017-12-30T13:31:38.352Z,7.20
2017-12-30T13:32:43.252Z,7.30
2017-12-30T13:33:48.870Z,7.40
2017-12-30T13:34:55.204Z,7.46
2017-12-30T13:36:00.245Z,7.40
2017-12-30T13:37:06.074Z,7.36
2017-12-30T13:38:11.028Z,7.37
2017-12-30T13:39:16.006Z,7.26
2017-12-30T13:40:22.378Z,7.35
2017-12-30T13:41:27.362Z,7.48
2017-12-30T13:42:32.415Z,7.54
2017-12-30T13:43:37.429Z,7.44
2017-12-30T13:44:43.262Z,7.39
2017-12-30T13:45:48.412Z,7.42
2017-12-30T13:46:53.652Z,7.51
2017-12-30T13:47:58.424Z,7.51
2017-12-30T13:49:03.303Z,7.57
2017-12-30T13:50:08.088Z,7.52
2017-12-30T13:51:12.829Z,7.72
2017-12-30T13:52:17.628Z,7.68
2017-12-30T13:53:22.958Z,7.70
2017-12-30T13:54:28.391Z,7.55
2017-12-30T13:55:33.463Z,7.72
2017-12-30T13:56:38.416Z,7.75
2017-12-30T13:57:43.378Z,7.71
2017-12-30T13:58:48.553Z,7.74
2017-12-30T13:59:53.959Z,7.85
2017-12-30T14:00:59.379Z,7.85
2017-12-30T14:02:05.821Z,7.91
2017-12-30T14:03:10.861Z,7.84
2017-12-30T14:04:15.964Z,7.88
2017-12-30T14:05:20.981Z,7.91
2017-12-30T14:06:26.197Z,7.89
2017-12-30T14:07:31.210Z,8.07
2017-12-30T14:08:36.230Z,8.06
2017-12-30T14:09:41.251Z,8.03
2017-12-30T14:10:46.516Z,7.97
2017-12-30T14:11:52.218Z,8.02
2017-12-30T14:12:57.528Z,7.95
2017-12-30T14:14:02.524Z,7.88
2017-12-30T14:15:07.612Z,7.90
2017-12-30T14:16:12.628Z,7.93
2017-12-30T14:17:17.657Z,8.07
2017-12-30T14:18:25.157Z,8.10
2017-12-30T14:19:30.465Z,8.16
2017-12-30T14:20:35.561Z,8.06
2017-12-30T14:21:41.143Z,7.96
2017-12-30T14:22:46.155Z,8.01
2017-12-30T14:23:51.259Z,8.09
2017-12-30T14:24:56.272Z,8.11
2017-12-30T14:26:01.762Z,8.05
2017-12-30T14:27:07.113Z,8.12
2017-12-30T14:28:12.141Z,8.14